Accueil
METAR-TAF:

METAR-TAF

Aéroports :

Aérodrome de Kimberley

Kimberley, Afrique du Sud

latitude: 28-48S, longitude: 024-46E, altitude: 1198 m

Observation

Le bulletin a été fait il y a 19 minutes, à 13:00 UTC
Vent 3 kt de ouest/nord-ouest
Température 25°C
Humidité 44%
Pression 1027 hPa
Visibilité 10 km ou plus
pas de nuages en-dessous de 1500 mètres et pas de cumulonimbus.

METAR: FAKM 271300Z 29003KT CAVOK 25/12 Q1027

Heure: 15:19 (13:19 UTC)

Prévision

Le bulletin a été fait il y a 4 heures et 19 minutes, à 09:00 UTC
Prévision valable du 27 à 10 UTC au 27 à 18 UTC
Vent 3 kt de direction variable
Visibilité 10 km ou plus
pas de nuages en-dessous de 1500 mètres et pas de cumulonimbus.

TAF: FAKM 270900Z 2710/2718 VRB03KT CAVOK TX23/2712Z TN13/2718Z

Observations et prévisions météorologiques de plus de 4000 aéroports (messages METAR et TAF).

Les stations disponibles sont représentées par des disques jaunes et rouges sur la carte.

Passer la souris dessus pour voir le nom de la station.

Cliquer dessus pour voir les observations et prévisions météorologiques.

Pour changer de carte: cliquez sur les boutons verts avec une croix noire pour zoomer, sur le bouton vert avec un tiret pour effectuer un zoom arrière, ou sur les flèches vertes pour les cartes adjacentes.


METAR-TAF: